Capitol Logistics 270




KMIA
Miami International Airport
Miami, Florida
KSAV
Savannah/Hilton Head International Airport
Savannah, Georgia

Activity Log

Date Flight Route Aircraft Duration
11/01/2021 CPX270 HEDLY2 HEDLY STYMY ZERBO Q87 VIYAP CHECR STOCR3 B752 1h 23m
08/12/2021 CPX3270 PIONN V437 MLB V3 OMN V437 KELER SF34 1h 55m
04/08/2021 CPX3270 PIONN V437 MLB V3 OMN V437 KELER SF34 2h 02m
03/29/2021 CPX3270 HEDLY2 HEDLY V267 PHK V437 MLB V3 OMN V437 KELER SF34 1h 41m
12/31/2019 CPX3270 HEDLY J53 CRG B752 1h 31m
12/23/2019 CPX3270 PIONN V437 MLB V3 OMN V437 KELER SF34 2h 04m
11/26/2019 CPX3270 PIONN V437 MLB V3 OMN V437 KELER SF34 2h 27m
10/10/2019 CPX670 PIONN V437 MLB V3 OMN V437 KELER SF34 1h 36m
09/24/2019 CPX670 PIONN V437 MLB V3 OMN V437 KELER SF34 1h 40m
05/01/2019 CPX670 DHP V437 MLB V3 OMN V437 KELER SF34 1h 43m
03/22/2019 CPX670 PIONN V437 MLB V3 OMN V437 KELER SF34 1h 55m

Route Details

Aircraft Information
Group: Narrowbodies
Types: B738,B752
Route Data
Demand: V
Distance: 384nm
Duration: 1h 35m
Recm'd Route: HEDLY2 HEDLY STYMY ZERBO Q87 VIYAP CHECR STOCR3
Origin Wx: KMIA 272053Z 13012KT 10SM FEW035 SCT050 SCT250 30/23 A2996 RMK AO2 LTG DSNT W SLP146 CB DSNT W-NW T03000233 58016 $
Dest. Wx: KSAV 272053Z 19014KT 10SM SCT040 SCT065 BKN140 27/21 A2989 RMK AO2 SLP120 CB DSNT S MOV E T02670211 56014 $
Notes:

Financial History
Total Freight: 138,864lbs
Average Load: 12,624lbs/flt
Fuel Used: 34,089lbs
Avg. Fuel Used: 3,099lbs/flt
Fuel Expense: $31,723
Avg. Fuel Expense: $2,884
Avg. Fuel Cost: $1.08/lbs
Total Gross Income: $196,529
Pilot Pay: $2,269
Total Expenses: $23,473
Total Revenue: $137,486
Average Revenue: $17,866.31